sensor_id;sensor_type;location;lat;lon;timestamp;pressure;altitude;pressure_sealevel;temperature;humidity
67987;BME280;54767;53.800;15.956;2023-01-30T00:01:16;99502.84;;;1.44;84.11
67987;BME280;54767;53.800;15.956;2023-01-30T00:03:45;99497.50;;;1.44;84.04
67987;BME280;54767;53.800;15.956;2023-01-30T00:06:13;99486.35;;;1.46;84.08
67987;BME280;54767;53.800;15.956;2023-01-30T00:08:43;99481.55;;;1.47;84.05
67987;BME280;54767;53.800;15.956;2023-01-30T00:11:13;99479.64;;;1.47;84.12
67987;BME280;54767;53.800;15.956;2023-01-30T00:13:42;99476.55;;;1.47;83.82
67987;BME280;54767;53.800;15.956;2023-01-30T00:16:11;99471.85;;;1.45;84.04
67987;BME280;54767;53.800;15.956;2023-01-30T00:18:40;99463.70;;;1.44;83.95
67987;BME280;54767;53.800;15.956;2023-01-30T00:21:11;99463.56;;;1.45;84.01
67987;BME280;54767;53.800;15.956;2023-01-30T00:23:40;99463.58;;;1.45;83.96
67987;BME280;54767;53.800;15.956;2023-01-30T00:26:09;99456.02;;;1.46;83.95
67987;BME280;54767;53.800;15.956;2023-01-30T00:28:38;99437.96;;;1.48;83.81
67987;BME280;54767;53.800;15.956;2023-01-30T00:31:07;99429.84;;;1.47;83.98
67987;BME280;54767;53.800;15.956;2023-01-30T00:33:36;99418.42;;;1.46;84.02
67987;BME280;54767;53.800;15.956;2023-01-30T00:36:06;99398.58;;;1.45;83.82
67987;BME280;54767;53.800;15.956;2023-01-30T00:38:34;99388.35;;;1.43;83.84
67987;BME280;54767;53.800;15.956;2023-01-30T00:41:02;99371.78;;;1.42;83.96
67987;BME280;54767;53.800;15.956;2023-01-30T00:43:31;99365.42;;;1.43;84.02
67987;BME280;54767;53.800;15.956;2023-01-30T00:46:32;99343.84;;;1.42;83.70
67987;BME280;54767;53.800;15.956;2023-01-30T00:49:19;99329.48;;;1.40;83.86
67987;BME280;54767;53.800;15.956;2023-01-30T00:51:48;99316.72;;;1.39;83.95
67987;BME280;54767;53.800;15.956;2023-01-30T00:54:16;99306.55;;;1.40;83.92
67987;BME280;54767;53.800;15.956;2023-01-30T00:56:44;99300.54;;;1.41;84.11
67987;BME280;54767;53.800;15.956;2023-01-30T00:59:13;99293.69;;;1.42;83.88
67987;BME280;54767;53.800;15.956;2023-01-30T01:01:41;99281.95;;;1.42;83.89
67987;BME280;54767;53.800;15.956;2023-01-30T01:04:09;99270.91;;;1.41;84.12
67987;BME280;54767;53.800;15.956;2023-01-30T01:06:38;99262.42;;;1.40;84.10
67987;BME280;54767;53.800;15.956;2023-01-30T01:09:07;99266.20;;;1.39;84.17
67987;BME280;54767;53.800;15.956;2023-01-30T01:11:35;99260.70;;;1.40;83.95
67987;BME280;54767;53.800;15.956;2023-01-30T01:14:05;99242.11;;;1.41;83.94
67987;BME280;54767;53.800;15.956;2023-01-30T01:16:34;99239.55;;;1.43;84.07
67987;BME280;54767;53.800;15.956;2023-01-30T01:19:03;99243.31;;;1.41;83.98
67987;BME280;54767;53.800;15.956;2023-01-30T01:21:31;99232.08;;;1.39;83.80
67987;BME280;54767;53.800;15.956;2023-01-30T01:24:00;99228.42;;;1.39;83.91
67987;BME280;54767;53.800;15.956;2023-01-30T01:26:28;99234.79;;;1.37;84.07
67987;BME280;54767;53.800;15.956;2023-01-30T01:28:57;99219.27;;;1.38;84.06
67987;BME280;54767;53.800;15.956;2023-01-30T01:31:26;99214.45;;;1.38;84.08
67987;BME280;54767;53.800;15.956;2023-01-30T01:33:54;99206.70;;;1.38;83.93
67987;BME280;54767;53.800;15.956;2023-01-30T01:36:22;99209.97;;;1.38;84.11
67987;BME280;54767;53.800;15.956;2023-01-30T01:39:11;99195.96;;;1.36;84.00
67987;BME280;54767;53.800;15.956;2023-01-30T01:41:39;99185.25;;;1.35;84.14
67987;BME280;54767;53.800;15.956;2023-01-30T01:44:13;99179.55;;;1.34;84.22
67987;BME280;54767;53.800;15.956;2023-01-30T01:46:50;99183.52;;;1.34;84.20
67987;BME280;54767;53.800;15.956;2023-01-30T01:52:00;99170.73;;;1.32;84.10
67987;BME280;54767;53.800;15.956;2023-01-30T01:54:46;99179.15;;;1.31;84.04
67987;BME280;54767;53.800;15.956;2023-01-30T01:57:43;99178.23;;;1.29;84.28
67987;BME280;54767;53.800;15.956;2023-01-30T02:00:15;99178.54;;;1.27;84.10
67987;BME280;54767;53.800;15.956;2023-01-30T02:03:07;99171.12;;;1.27;84.12
67987;BME280;54767;53.800;15.956;2023-01-30T02:05:41;99169.04;;;1.26;84.31
67987;BME280;54767;53.800;15.956;2023-01-30T02:08:14;99166.62;;;1.26;84.37
67987;BME280;54767;53.800;15.956;2023-01-30T02:10:49;99164.20;;;1.25;84.39
67987;BME280;54767;53.800;15.956;2023-01-30T02:13:21;99148.15;;;1.25;84.41
67987;BME280;54767;53.800;15.956;2023-01-30T02:15:50;99137.64;;;1.25;84.19
67987;BME280;54767;53.800;15.956;2023-01-30T02:18:18;99125.42;;;1.25;84.37
67987;BME280;54767;53.800;15.956;2023-01-30T02:38:03;99077.23;;;1.20;84.37
67987;BME280;54767;53.800;15.956;2023-01-30T02:46:38;99037.95;;;1.21;84.19
67987;BME280;54767;53.800;15.956;2023-01-30T02:49:14;99046.56;;;1.21;84.48
67987;BME280;54767;53.800;15.956;2023-01-30T02:51:48;99036.40;;;1.21;84.56
67987;BME280;54767;53.800;15.956;2023-01-30T02:54:17;99030.06;;;1.22;84.46
67987;BME280;54767;53.800;15.956;2023-01-30T02:56:51;99028.86;;;1.24;84.44
67987;BME280;54767;53.800;15.956;2023-01-30T02:59:29;99023.89;;;1.24;84.40
67987;BME280;54767;53.800;15.956;2023-01-30T03:05:31;99027.44;;;1.21;84.34
67987;BME280;54767;53.800;15.956;2023-01-30T03:13:19;99020.59;;;1.23;84.61
67987;BME280;54767;53.800;15.956;2023-01-30T03:16:02;99012.49;;;1.23;84.64
67987;BME280;54767;53.800;15.956;2023-01-30T03:18:32;99004.55;;;1.22;84.54
67987;BME280;54767;53.800;15.956;2023-01-30T03:21:05;99002.27;;;1.21;84.30
67987;BME280;54767;53.800;15.956;2023-01-30T03:23:33;98995.73;;;1.21;84.60
67987;BME280;54767;53.800;15.956;2023-01-30T03:26:04;98990.02;;;1.20;84.52
67987;BME280;54767;53.800;15.956;2023-01-30T03:28:33;98987.61;;;1.20;84.44
67987;BME280;54767;53.800;15.956;2023-01-30T03:31:02;98988.18;;;1.22;84.50
67987;BME280;54767;53.800;15.956;2023-01-30T03:33:30;98988.18;;;1.23;84.69
67987;BME280;54767;53.800;15.956;2023-01-30T03:35:59;98973.38;;;1.24;84.62
67987;BME280;54767;53.800;15.956;2023-01-30T03:38:27;98960.80;;;1.24;84.66
67987;BME280;54767;53.800;15.956;2023-01-30T03:40:56;98961.64;;;1.23;84.84
67987;BME280;54767;53.800;15.956;2023-01-30T03:43:24;98962.98;;;1.21;84.74
67987;BME280;54767;53.800;15.956;2023-01-30T03:45:52;98958.32;;;1.20;84.71
67987;BME280;54767;53.800;15.956;2023-01-30T03:48:21;98957.12;;;1.21;84.93
67987;BME280;54767;53.800;15.956;2023-01-30T03:50:49;98950.77;;;1.22;84.86
67987;BME280;54767;53.800;15.956;2023-01-30T03:53:17;98948.90;;;1.23;84.77
67987;BME280;54767;53.800;15.956;2023-01-30T03:55:46;98946.52;;;1.25;84.64
67987;BME280;54767;53.800;15.956;2023-01-30T03:58:14;98926.54;;;1.26;84.55
67987;BME280;54767;53.800;15.956;2023-01-30T04:00:42;98936.54;;;1.26;84.75
67987;BME280;54767;53.800;15.956;2023-01-30T04:03:10;98929.11;;;1.25;84.94
67987;BME280;54767;53.800;15.956;2023-01-30T04:05:41;98918.40;;;1.24;84.92
67987;BME280;54767;53.800;15.956;2023-01-30T04:08:09;98910.83;;;1.24;84.94
67987;BME280;54767;53.800;15.956;2023-01-30T04:10:38;98897.59;;;1.25;85.15
67987;BME280;54767;53.800;15.956;2023-01-30T04:13:06;98895.71;;;1.26;84.80
67987;BME280;54767;53.800;15.956;2023-01-30T04:15:34;98890.58;;;1.29;85.14
67987;BME280;54767;53.800;15.956;2023-01-30T04:18:03;98881.98;;;1.30;84.87
67987;BME280;54767;53.800;15.956;2023-01-30T04:20:31;98876.32;;;1.32;85.01
67987;BME280;54767;53.800;15.956;2023-01-30T04:23:00;98862.72;;;1.32;85.30
67987;BME280;54767;53.800;15.956;2023-01-30T04:25:28;98854.27;;;1.32;85.05
67987;BME280;54767;53.800;15.956;2023-01-30T04:27:57;98846.67;;;1.31;85.00
67987;BME280;54767;53.800;15.956;2023-01-30T04:30:25;98848.89;;;1.30;85.15
67987;BME280;54767;53.800;15.956;2023-01-30T04:32:53;98843.35;;;1.29;85.07
67987;BME280;54767;53.800;15.956;2023-01-30T04:35:21;98838.36;;;1.28;85.04
67987;BME280;54767;53.800;15.956;2023-01-30T04:37:50;98830.09;;;1.28;85.22
67987;BME280;54767;53.800;15.956;2023-01-30T04:40:18;98826.81;;;1.28;84.82
67987;BME280;54767;53.800;15.956;2023-01-30T04:42:46;98816.80;;;1.27;84.72
67987;BME280;54767;53.800;15.956;2023-01-30T04:45:15;98808.80;;;1.24;85.08
67987;BME280;54767;53.800;15.956;2023-01-30T04:47:43;98809.66;;;1.24;85.10
67987;BME280;54767;53.800;15.956;2023-01-30T04:50:12;98803.11;;;1.24;85.20
67987;BME280;54767;53.800;15.956;2023-01-30T04:52:40;98801.05;;;1.23;85.01
67987;BME280;54767;53.800;15.956;2023-01-30T04:55:08;98797.25;;;1.23;85.06
67987;BME280;54767;53.800;15.956;2023-01-30T04:57:37;98789.66;;;1.23;84.76
67987;BME280;54767;53.800;15.956;2023-01-30T05:00:06;98782.92;;;1.22;84.92
67987;BME280;54767;53.800;15.956;2023-01-30T05:02:34;98780.30;;;1.19;84.83
67987;BME280;54767;53.800;15.956;2023-01-30T05:05:02;98775.10;;;1.17;84.84
67987;BME280;54767;53.800;15.956;2023-01-30T05:07:31;98771.98;;;1.17;84.88
67987;BME280;54767;53.800;15.956;2023-01-30T05:09:59;98766.13;;;1.16;84.91
67987;BME280;54767;53.800;15.956;2023-01-30T05:12:29;98764.23;;;1.16;85.12
67987;BME280;54767;53.800;15.956;2023-01-30T05:14:58;98749.60;;;1.17;84.85
67987;BME280;54767;53.800;15.956;2023-01-30T05:17:26;98749.60;;;1.17;84.94
67987;BME280;54767;53.800;15.956;2023-01-30T05:19:54;98747.50;;;1.15;84.73
67987;BME280;54767;53.800;15.956;2023-01-30T05:22:23;98741.79;;;1.13;85.02
67987;BME280;54767;53.800;15.956;2023-01-30T05:24:52;98736.41;;;1.12;85.22
67987;BME280;54767;53.800;15.956;2023-01-30T05:27:21;98735.91;;;1.12;84.86
67987;BME280;54767;53.800;15.956;2023-01-30T05:29:49;98726.80;;;1.13;85.00
67987;BME280;54767;53.800;15.956;2023-01-30T05:32:18;98725.23;;;1.12;84.67
67987;BME280;54767;53.800;15.956;2023-01-30T05:34:47;98723.65;;;1.11;84.99
67987;BME280;54767;53.800;15.956;2023-01-30T05:37:16;98720.35;;;1.08;84.94
67987;BME280;54767;53.800;15.956;2023-01-30T05:39:45;98714.63;;;1.06;84.84
67987;BME280;54767;53.800;15.956;2023-01-30T05:42:14;98711.86;;;1.06;84.85
67987;BME280;54767;53.800;15.956;2023-01-30T05:44:43;98707.89;;;1.06;84.98
67987;BME280;54767;53.800;15.956;2023-01-30T05:47:11;98705.48;;;1.06;85.06
67987;BME280;54767;53.800;15.956;2023-01-30T05:49:39;98710.31;;;1.06;84.78
67987;BME280;54767;53.800;15.956;2023-01-30T05:52:08;98715.48;;;1.06;84.87
67987;BME280;54767;53.800;15.956;2023-01-30T05:54:36;98715.97;;;1.04;85.10
67987;BME280;54767;53.800;15.956;2023-01-30T05:57:04;98709.05;;;1.02;84.97
67987;BME280;54767;53.800;15.956;2023-01-30T05:59:32;98705.77;;;1.02;85.14
67987;BME280;54767;53.800;15.956;2023-01-30T06:02:01;98698.70;;;1.01;85.02
67987;BME280;54767;53.800;15.956;2023-01-30T06:04:29;98695.95;;;1.02;85.11
67987;BME280;54767;53.800;15.956;2023-01-30T06:06:57;98689.60;;;1.03;85.19
67987;BME280;54767;53.800;15.956;2023-01-30T06:09:25;98686.67;;;1.03;84.87
67987;BME280;54767;53.800;15.956;2023-01-30T06:11:54;98681.16;;;1.03;85.10
67987;BME280;54767;53.800;15.956;2023-01-30T06:14:22;98684.60;;;1.02;85.28
67987;BME280;54767;53.800;15.956;2023-01-30T06:16:51;98682.34;;;1.02;85.23
67987;BME280;54767;53.800;15.956;2023-01-30T06:19:19;98679.09;;;1.02;85.41
67987;BME280;54767;53.800;15.956;2023-01-30T06:21:47;98675.30;;;1.04;85.09
67987;BME280;54767;53.800;15.956;2023-01-30T06:24:15;98673.78;;;1.04;85.04
67987;BME280;54767;53.800;15.956;2023-01-30T06:26:44;98677.92;;;1.05;84.93
67987;BME280;54767;53.800;15.956;2023-01-30T06:29:12;98679.48;;;1.06;84.98
67987;BME280;54767;53.800;15.956;2023-01-30T06:31:40;98679.81;;;1.05;85.09
67987;BME280;54767;53.800;15.956;2023-01-30T06:34:10;98681.53;;;1.05;85.30
67987;BME280;54767;53.800;15.956;2023-01-30T06:36:38;98679.95;;;1.03;85.28
67987;BME280;54767;53.800;15.956;2023-01-30T06:39:07;98672.72;;;1.04;85.38
67987;BME280;54767;53.800;15.956;2023-01-30T06:41:35;98668.09;;;1.04;85.27
67987;BME280;54767;53.800;15.956;2023-01-30T06:44:03;98664.84;;;1.05;85.15
67987;BME280;54767;53.800;15.956;2023-01-30T06:46:32;98674.15;;;1.07;85.27
67987;BME280;54767;53.800;15.956;2023-01-30T06:49:00;98672.92;;;1.06;85.25
67987;BME280;54767;53.800;15.956;2023-01-30T06:51:29;98665.86;;;1.05;85.34
67987;BME280;54767;53.800;15.956;2023-01-30T06:53:59;98666.73;;;1.05;85.45
67987;BME280;54767;53.800;15.956;2023-01-30T06:56:27;98668.97;;;1.06;85.40
67987;BME280;54767;53.800;15.956;2023-01-30T06:58:56;98666.59;;;1.07;85.36
67987;BME280;54767;53.800;15.956;2023-01-30T07:01:24;98655.94;;;1.10;85.37
67987;BME280;54767;53.800;15.956;2023-01-30T07:03:55;98658.89;;;1.10;85.16
67987;BME280;54767;53.800;15.956;2023-01-30T07:06:26;98658.35;;;1.09;85.47
67987;BME280;54767;53.800;15.956;2023-01-30T07:08:54;98661.42;;;1.08;85.64
67987;BME280;54767;53.800;15.956;2023-01-30T07:11:26;98665.23;;;1.09;85.57
67987;BME280;54767;53.800;15.956;2023-01-30T07:13:54;98666.64;;;1.11;85.61
67987;BME280;54767;53.800;15.956;2023-01-30T07:16:23;98665.13;;;1.14;85.61
67987;BME280;54767;53.800;15.956;2023-01-30T07:18:56;98661.04;;;1.17;85.80
67987;BME280;54767;53.800;15.956;2023-01-30T07:21:25;98661.42;;;1.20;85.72
67987;BME280;54767;53.800;15.956;2023-01-30T07:23:54;98668.67;;;1.21;85.90
67987;BME280;54767;53.800;15.956;2023-01-30T07:26:22;98667.31;;;1.23;85.96
67987;BME280;54767;53.800;15.956;2023-01-30T07:28:51;98667.85;;;1.25;85.99
67987;BME280;54767;53.800;15.956;2023-01-30T07:31:20;98666.34;;;1.27;85.89
67987;BME280;54767;53.800;15.956;2023-01-30T07:33:48;98664.84;;;1.30;85.84
67987;BME280;54767;53.800;15.956;2023-01-30T07:36:16;98666.41;;;1.33;85.93
67987;BME280;54767;53.800;15.956;2023-01-30T07:38:47;98667.67;;;1.36;86.07
67987;BME280;54767;53.800;15.956;2023-01-30T07:41:16;98669.59;;;1.38;86.16
67987;BME280;54767;53.800;15.956;2023-01-30T07:43:44;98666.85;;;1.39;86.27
67987;BME280;54767;53.800;15.956;2023-01-30T07:46:13;98668.07;;;1.41;86.29
67987;BME280;54767;53.800;15.956;2023-01-30T07:48:43;98670.67;;;1.42;86.28
67987;BME280;54767;53.800;15.956;2023-01-30T07:51:12;98670.54;;;1.44;86.16
67987;BME280;54767;53.800;15.956;2023-01-30T07:53:41;98671.63;;;1.48;86.12
67987;BME280;54767;53.800;15.956;2023-01-30T07:56:11;98678.38;;;1.51;86.15
67987;BME280;54767;53.800;15.956;2023-01-30T07:58:41;98675.13;;;1.52;86.34
67987;BME280;54767;53.800;15.956;2023-01-30T08:01:09;98683.91;;;1.53;86.51
67987;BME280;54767;53.800;15.956;2023-01-30T08:03:37;98689.64;;;1.54;86.32
67987;BME280;54767;53.800;15.956;2023-01-30T08:06:06;98690.16;;;1.55;86.34
67987;BME280;54767;53.800;15.956;2023-01-30T08:08:34;98693.48;;;1.59;86.30
67987;BME280;54767;53.800;15.956;2023-01-30T08:11:03;98694.55;;;1.62;86.30
67987;BME280;54767;53.800;15.956;2023-01-30T08:13:31;98693.02;;;1.64;86.17
67987;BME280;54767;53.800;15.956;2023-01-30T08:16:01;98688.22;;;1.65;86.20
67987;BME280;54767;53.800;15.956;2023-01-30T08:18:31;98690.46;;;1.66;86.15
67987;BME280;54767;53.800;15.956;2023-01-30T08:21:03;98685.48;;;1.66;86.30
67987;BME280;54767;53.800;15.956;2023-01-30T08:23:33;98683.75;;;1.67;86.35
67987;BME280;54767;53.800;15.956;2023-01-30T08:26:03;98693.27;;;1.69;86.45
67987;BME280;54767;53.800;15.956;2023-01-30T08:28:33;98694.68;;;1.72;86.40
67987;BME280;54767;53.800;15.956;2023-01-30T08:31:01;98683.33;;;1.75;86.20
67987;BME280;54767;53.800;15.956;2023-01-30T08:33:30;98679.58;;;1.78;86.27
67987;BME280;54767;53.800;15.956;2023-01-30T08:35:58;98676.17;;;1.82;86.25
67987;BME280;54767;53.800;15.956;2023-01-30T08:38:26;98679.98;;;1.84;86.45
67987;BME280;54767;53.800;15.956;2023-01-30T08:40:54;98674.33;;;1.86;86.61
67987;BME280;54767;53.800;15.956;2023-01-30T08:43:26;98675.23;;;1.89;86.48
67987;BME280;54767;53.800;15.956;2023-01-30T08:45:55;98671.12;;;1.93;86.48
67987;BME280;54767;53.800;15.956;2023-01-30T08:48:23;98671.88;;;1.99;86.56
67987;BME280;54767;53.800;15.956;2023-01-30T08:50:55;98670.55;;;2.03;86.45
67987;BME280;54767;53.800;15.956;2023-01-30T08:53:24;98667.14;;;2.08;86.53
67987;BME280;54767;53.800;15.956;2023-01-30T08:55:52;98662.20;;;2.13;86.65
67987;BME280;54767;53.800;15.956;2023-01-30T08:58:21;98665.85;;;2.17;86.59
67987;BME280;54767;53.800;15.956;2023-01-30T09:00:49;98667.78;;;2.19;86.71
67987;BME280;54767;53.800;15.956;2023-01-30T09:03:18;98663.48;;;2.22;86.76
67987;BME280;54767;53.800;15.956;2023-01-30T09:05:46;98660.41;;;2.24;86.87
67987;BME280;54767;53.800;15.956;2023-01-30T09:08:20;98661.13;;;2.28;86.65
67987;BME280;54767;53.800;15.956;2023-01-30T09:10:49;98661.18;;;2.32;86.83
67987;BME280;54767;53.800;15.956;2023-01-30T09:13:17;98661.58;;;2.37;86.54
67987;BME280;54767;53.800;15.956;2023-01-30T09:15:45;98658.33;;;2.41;86.66
67987;BME280;54767;53.800;15.956;2023-01-30T09:18:14;98651.30;;;2.46;86.86
67987;BME280;54767;53.800;15.956;2023-01-30T09:20:42;98654.80;;;2.52;87.11
67987;BME280;54767;53.800;15.956;2023-01-30T09:23:11;98650.70;;;2.57;87.01
67987;BME280;54767;53.800;15.956;2023-01-30T09:25:39;98651.95;;;2.62;86.98
67987;BME280;54767;53.800;15.956;2023-01-30T09:28:08;98657.17;;;2.68;87.05
67987;BME280;54767;53.800;15.956;2023-01-30T09:30:37;98659.98;;;2.74;87.17
67987;BME280;54767;53.800;15.956;2023-01-30T09:33:05;98659.02;;;2.80;87.11
67987;BME280;54767;53.800;15.956;2023-01-30T09:35:33;98656.98;;;2.86;87.09
67987;BME280;54767;53.800;15.956;2023-01-30T09:38:02;98655.63;;;2.91;87.19
67987;BME280;54767;53.800;15.956;2023-01-30T09:40:33;98652.73;;;2.96;87.10
67987;BME280;54767;53.800;15.956;2023-01-30T09:49:03;98656.10;;;3.10;86.94
67987;BME280;54767;53.800;15.956;2023-01-30T09:54:47;98652.20;;;3.21;86.71
67987;BME280;54767;53.800;15.956;2023-01-30T09:57:19;98653.94;;;3.25;86.73
67987;BME280;54767;53.800;15.956;2023-01-30T10:00:03;98646.34;;;3.26;86.75
67987;BME280;54767;53.800;15.956;2023-01-30T10:02:43;98641.33;;;3.27;86.52
67987;BME280;54767;53.800;15.956;2023-01-30T10:05:13;98643.77;;;3.28;86.33
67987;BME280;54767;53.800;15.956;2023-01-30T10:10:53;98638.79;;;3.36;86.79
67987;BME280;54767;53.800;15.956;2023-01-30T10:16:36;98636.62;;;3.53;86.74
67987;BME280;54767;53.800;15.956;2023-01-30T10:19:29;98633.52;;;3.59;86.63
67987;BME280;54767;53.800;15.956;2023-01-30T10:27:20;98622.32;;;3.70;86.72
67987;BME280;54767;53.800;15.956;2023-01-30T10:29:55;98617.15;;;3.74;86.74
67987;BME280;54767;53.800;15.956;2023-01-30T10:32:31;98615.77;;;3.74;86.52
67987;BME280;54767;53.800;15.956;2023-01-30T10:35:17;98610.59;;;3.78;86.61
67987;BME280;54767;53.800;15.956;2023-01-30T10:38:03;98598.49;;;3.83;86.48
67987;BME280;54767;53.800;15.956;2023-01-30T10:40:45;98592.27;;;3.84;86.23
67987;BME280;54767;53.800;15.956;2023-01-30T10:43:23;98595.56;;;3.84;86.26
67987;BME280;54767;53.800;15.956;2023-01-30T10:54:21;98587.43;;;3.88;85.74
67987;BME280;54767;53.800;15.956;2023-01-30T10:57:00;98586.21;;;3.90;85.85
67987;BME280;54767;53.800;15.956;2023-01-30T10:59:43;98580.34;;;3.91;85.75
67987;BME280;54767;53.800;15.956;2023-01-30T11:02:24;98581.37;;;3.90;85.66
67987;BME280;54767;53.800;15.956;2023-01-30T11:05:00;98573.94;;;3.89;85.54
67987;BME280;54767;53.800;15.956;2023-01-30T11:07:31;98571.52;;;3.89;85.60
67987;BME280;54767;53.800;15.956;2023-01-30T11:10:00;98570.65;;;3.89;85.68
67987;BME280;54767;53.800;15.956;2023-01-30T11:12:28;98572.02;;;3.90;85.70
67987;BME280;54767;53.800;15.956;2023-01-30T11:14:58;98556.11;;;3.92;85.83
67987;BME280;54767;53.800;15.956;2023-01-30T11:17:28;98548.67;;;3.94;85.19
67987;BME280;54767;53.800;15.956;2023-01-30T11:20:23;98544.01;;;3.95;85.29
67987;BME280;54767;53.800;15.956;2023-01-30T11:22:52;98541.75;;;3.96;85.35
67987;BME280;54767;53.800;15.956;2023-01-30T11:25:27;98536.90;;;3.96;85.32
67987;BME280;54767;53.800;15.956;2023-01-30T11:28:01;98534.14;;;3.96;85.36
67987;BME280;54767;53.800;15.956;2023-01-30T11:30:34;98538.64;;;3.98;85.37
67987;BME280;54767;53.800;15.956;2023-01-30T11:33:15;98542.63;;;4.01;85.29
67987;BME280;54767;53.800;15.956;2023-01-30T11:35:55;98541.92;;;4.04;84.99
67987;BME280;54767;53.800;15.956;2023-01-30T11:38:27;98543.84;;;4.05;84.74
67987;BME280;54767;53.800;15.956;2023-01-30T11:43:38;98541.08;;;4.05;85.03
67987;BME280;54767;53.800;15.956;2023-01-30T11:46:08;98541.58;;;4.04;84.77
67987;BME280;54767;53.800;15.956;2023-01-30T11:48:48;98539.51;;;4.02;84.30
67987;BME280;54767;53.800;15.956;2023-01-30T11:51:34;98544.89;;;4.02;84.65
67987;BME280;54767;53.800;15.956;2023-01-30T11:54:06;98546.09;;;4.03;84.73
67987;BME280;54767;53.800;15.956;2023-01-30T11:56:51;98541.94;;;4.03;84.36
67987;BME280;54767;53.800;15.956;2023-01-30T11:59:52;98534.48;;;4.02;84.37
67987;BME280;54767;53.800;15.956;2023-01-30T12:02:24;98533.45;;;4.02;84.38
67987;BME280;54767;53.800;15.956;2023-01-30T12:04:58;98531.38;;;4.02;84.42
67987;BME280;54767;53.800;15.956;2023-01-30T12:07:35;98534.32;;;4.03;84.07
67987;BME280;54767;53.800;15.956;2023-01-30T12:12:52;98518.05;;;4.03;84.21
67987;BME280;54767;53.800;15.956;2023-01-30T12:15:24;98515.46;;;4.02;83.98
67987;BME280;54767;53.800;15.956;2023-01-30T12:26:15;98495.55;;;4.03;84.42
67987;BME280;54767;53.800;15.956;2023-01-30T12:31:35;98495.36;;;4.10;84.26
67987;BME280;54767;53.800;15.956;2023-01-30T12:34:08;98490.00;;;4.13;84.15
67987;BME280;54767;53.800;15.956;2023-01-30T12:45:18;98501.25;;;4.14;83.67
67987;BME280;54767;53.800;15.956;2023-01-30T12:51:08;98510.42;;;4.15;83.54
67987;BME280;54767;53.800;15.956;2023-01-30T12:54:01;98509.74;;;4.15;83.56
67987;BME280;54767;53.800;15.956;2023-01-30T13:18:14;98482.73;;;4.03;83.13
67987;BME280;54767;53.800;15.956;2023-01-30T13:21:03;98485.86;;;4.02;83.12
67987;BME280;54767;53.800;15.956;2023-01-30T13:23:44;98492.08;;;4.05;82.97
67987;BME280;54767;53.800;15.956;2023-01-30T13:26:19;98499.00;;;4.08;83.20
67987;BME280;54767;53.800;15.956;2023-01-30T13:28:52;98497.27;;;4.11;83.18
67987;BME280;54767;53.800;15.956;2023-01-30T13:31:26;98491.21;;;4.12;83.24
67987;BME280;54767;53.800;15.956;2023-01-30T13:34:11;98485.33;;;4.13;82.74
67987;BME280;54767;53.800;15.956;2023-01-30T13:36:46;98481.35;;;4.11;82.99
67987;BME280;54767;53.800;15.956;2023-01-30T13:41:54;98481.69;;;4.07;82.82
67987;BME280;54767;53.800;15.956;2023-01-30T13:44:27;98485.34;;;4.08;82.84
67987;BME280;54767;53.800;15.956;2023-01-30T13:47:14;98485.69;;;4.09;82.80
67987;BME280;54767;53.800;15.956;2023-01-30T13:52:49;98488.61;;;4.14;82.82
67987;BME280;54767;53.800;15.956;2023-01-30T13:55:43;98492.60;;;4.16;82.62
67987;BME280;54767;53.800;15.956;2023-01-30T14:00:54;98482.55;;;4.11;82.39
67987;BME280;54767;53.800;15.956;2023-01-30T14:03:28;98480.30;;;4.08;82.32
67987;BME280;54767;53.800;15.956;2023-01-30T14:06:05;98472.69;;;4.07;82.60
67987;BME280;54767;53.800;15.956;2023-01-30T14:11:48;98480.13;;;4.03;82.56
67987;BME280;54767;53.800;15.956;2023-01-30T14:14:29;98474.44;;;4.00;82.27
67987;BME280;54767;53.800;15.956;2023-01-30T14:17:17;98468.72;;;3.99;82.52
67987;BME280;54767;53.800;15.956;2023-01-30T14:33:01;98495.02;;;3.89;82.76
67987;BME280;54767;53.800;15.956;2023-01-30T14:35:31;98492.77;;;3.89;82.84
67987;BME280;54767;53.800;15.956;2023-01-30T14:38:19;98498.48;;;3.88;82.71
67987;BME280;54767;53.800;15.956;2023-01-30T14:49:03;98501.59;;;3.86;83.44
67987;BME280;54767;53.800;15.956;2023-01-30T14:54:30;98504.36;;;3.82;83.29
67987;BME280;54767;53.800;15.956;2023-01-30T14:57:19;98516.64;;;3.79;83.20
67987;BME280;54767;53.800;15.956;2023-01-30T14:59:55;98524.59;;;3.79;83.07
67987;BME280;54767;53.800;15.956;2023-01-30T15:02:54;98529.95;;;3.78;83.17
67987;BME280;54767;53.800;15.956;2023-01-30T15:05:27;98542.24;;;3.75;83.02
67987;BME280;54767;53.800;15.956;2023-01-30T15:08:04;98541.04;;;3.74;83.36
67987;BME280;54767;53.800;15.956;2023-01-30T15:10:51;98539.64;;;3.72;83.34
67987;BME280;54767;53.800;15.956;2023-01-30T15:32:31;98562.81;;;3.70;83.56
67987;BME280;54767;53.800;15.956;2023-01-30T15:35:11;98569.90;;;3.68;83.56
67987;BME280;54767;53.800;15.956;2023-01-30T15:37:52;98571.12;;;3.68;83.62
67987;BME280;54767;53.800;15.956;2023-01-30T15:40:27;98572.85;;;3.68;83.71
67987;BME280;54767;53.800;15.956;2023-01-30T15:48:48;98583.58;;;3.70;83.56
67987;BME280;54767;53.800;15.956;2023-01-30T15:51:26;98593.95;;;3.70;83.75
67987;BME280;54767;53.800;15.956;2023-01-30T15:53:57;98597.77;;;3.69;83.72
67987;BME280;54767;53.800;15.956;2023-01-30T15:56:28;98603.11;;;3.70;83.47
67987;BME280;54767;53.800;15.956;2023-01-30T15:58:59;98615.93;;;3.71;83.65
67987;BME280;54767;53.800;15.956;2023-01-30T16:01:29;98627.34;;;3.70;83.67
67987;BME280;54767;53.800;15.956;2023-01-30T16:03:57;98643.08;;;3.68;83.37
67987;BME280;54767;53.800;15.956;2023-01-30T16:09:01;98657.95;;;3.65;83.67
67987;BME280;54767;53.800;15.956;2023-01-30T16:11:36;98655.52;;;3.62;83.35
67987;BME280;54767;53.800;15.956;2023-01-30T16:14:10;98654.98;;;3.60;83.65
67987;BME280;54767;53.800;15.956;2023-01-30T16:17:02;98660.17;;;3.60;83.58
67987;BME280;54767;53.800;15.956;2023-01-30T16:19:35;98666.75;;;3.60;83.30
67987;BME280;54767;53.800;15.956;2023-01-30T16:22:17;98661.56;;;3.61;83.36